createdAt,value
2018-09-25T00:02:29.002Z,4.20
2018-09-25T00:05:02.854Z,3.80
2018-09-25T00:07:36.673Z,3.53
2018-09-25T00:10:10.617Z,3.67
2018-09-25T00:12:44.358Z,3.57
2018-09-25T00:15:18.115Z,3.97
2018-09-25T00:17:51.887Z,3.47
2018-09-25T00:20:25.687Z,3.93
2018-09-25T00:22:59.589Z,3.83
2018-09-25T00:25:33.580Z,3.67
2018-09-25T00:28:07.433Z,4.00
2018-09-25T00:30:41.369Z,3.93
2018-09-25T00:33:15.214Z,3.93
2018-09-25T00:35:49.094Z,3.60
2018-09-25T00:38:22.940Z,3.80
2018-09-25T00:40:56.833Z,3.73
2018-09-25T00:43:30.773Z,3.50
2018-09-25T00:46:04.588Z,3.77
2018-09-25T00:48:38.532Z,3.93
2018-09-25T00:51:12.524Z,3.90
2018-09-25T00:53:46.351Z,3.90
2018-09-25T00:56:20.094Z,4.23
2018-09-25T00:58:53.977Z,4.00
2018-09-25T01:01:27.761Z,4.27
2018-09-25T01:04:01.609Z,3.67
2018-09-25T01:06:35.489Z,4.13
2018-09-25T01:09:09.408Z,3.97
2018-09-25T01:11:43.292Z,4.10
2018-09-25T01:14:17.083Z,4.30
2018-09-25T01:16:50.719Z,3.93
2018-09-25T01:19:24.545Z,4.10
2018-09-25T01:21:58.407Z,4.60
2018-09-25T01:24:32.278Z,4.27
2018-09-25T01:27:06.140Z,4.57
2018-09-25T01:29:40.063Z,4.23
2018-09-25T01:32:13.936Z,4.50
2018-09-25T01:34:47.838Z,4.33
2018-09-25T01:37:21.751Z,4.53
2018-09-25T01:39:55.647Z,4.83
2018-09-25T01:42:29.566Z,5.07
2018-09-25T01:45:03.428Z,5.00
2018-09-25T01:47:37.298Z,4.57
2018-09-25T01:50:11.388Z,4.73
2018-09-25T01:52:45.279Z,5.00
2018-09-25T01:55:19.296Z,4.73
2018-09-25T01:57:53.103Z,4.80
2018-09-25T02:00:27.086Z,4.70
2018-09-25T02:03:00.936Z,4.80
2018-09-25T02:05:34.928Z,4.57
2018-09-25T02:08:08.670Z,4.60
2018-09-25T02:10:42.633Z,4.10
2018-09-25T02:13:16.579Z,4.70
2018-09-25T02:15:50.441Z,4.90
2018-09-25T02:18:24.353Z,4.77
2018-09-25T02:20:58.041Z,4.30
2018-09-25T02:23:31.879Z,4.90
2018-09-25T02:26:05.752Z,4.60
2018-09-25T02:28:39.730Z,4.70
2018-09-25T02:31:13.628Z,4.63
2018-09-25T02:33:47.536Z,6.30
2018-09-25T02:36:21.501Z,6.37
2018-09-25T02:38:55.320Z,4.83
2018-09-25T02:41:29.148Z,4.40
2018-09-25T02:44:03.036Z,4.47
2018-09-25T02:46:36.945Z,4.53
2018-09-25T02:49:10.864Z,4.60
2018-09-25T02:51:44.784Z,4.30
2018-09-25T02:54:18.788Z,4.60
2018-09-25T02:56:52.763Z,4.30
2018-09-25T02:59:26.752Z,5.10
2018-09-25T03:02:00.644Z,4.30
2018-09-25T03:04:34.464Z,3.93
2018-09-25T03:07:08.609Z,4.23
2018-09-25T03:09:42.518Z,4.13
2018-09-25T03:12:16.450Z,4.20
2018-09-25T03:14:50.368Z,4.20
2018-09-25T03:17:24.288Z,3.93
2018-09-25T03:19:58.248Z,4.23
2018-09-25T03:22:32.013Z,4.40
2018-09-25T03:25:05.959Z,4.00
2018-09-25T03:27:39.656Z,3.80
2018-09-25T03:30:13.588Z,3.70
2018-09-25T03:32:47.394Z,4.40
2018-09-25T03:35:21.306Z,3.90
2018-09-25T03:37:55.329Z,3.57
2018-09-25T03:40:29.240Z,3.83
2018-09-25T03:43:03.112Z,3.60
2018-09-25T03:45:37.025Z,4.20
2018-09-25T03:48:10.878Z,3.67
2018-09-25T03:50:44.779Z,3.60
2018-09-25T03:53:18.742Z,3.90
2018-09-25T03:55:52.637Z,3.77
2018-09-25T03:58:26.473Z,3.90
2018-09-25T04:01:00.305Z,3.90
2018-09-25T04:03:34.155Z,4.17
2018-09-25T04:06:08.144Z,4.60
2018-09-25T04:08:42.188Z,3.60
2018-09-25T04:11:16.107Z,3.90
2018-09-25T04:13:50.065Z,3.90
2018-09-25T04:16:24.031Z,3.80
2018-09-25T04:18:58.006Z,4.00
2018-09-25T04:21:31.958Z,3.83
2018-09-25T04:24:05.851Z,3.60
2018-09-25T04:26:39.677Z,3.80
2018-09-25T04:29:13.517Z,3.47
2018-09-25T04:31:47.569Z,4.17
2018-09-25T04:34:21.592Z,3.73
2018-09-25T04:36:55.516Z,4.00
2018-09-25T04:39:29.290Z,3.90
2018-09-25T04:42:03.613Z,3.93
2018-09-25T04:44:37.424Z,3.60
2018-09-25T04:47:11.577Z,3.80
2018-09-25T04:49:45.405Z,3.80
2018-09-25T04:52:19.334Z,3.57
2018-09-25T04:54:53.338Z,3.93
2018-09-25T04:57:27.157Z,3.73
2018-09-25T05:00:01.034Z,3.83
2018-09-25T05:02:34.909Z,3.93
2018-09-25T05:05:08.901Z,3.50
2018-09-25T05:07:42.876Z,3.70
2018-09-25T05:10:16.842Z,3.60
2018-09-25T05:12:50.771Z,3.67
2018-09-25T05:15:24.645Z,4.07
2018-09-25T05:17:58.677Z,3.50
2018-09-25T05:20:32.605Z,4.00
2018-09-25T05:23:06.463Z,3.70
2018-09-25T05:25:40.209Z,3.67
2018-09-25T05:28:14.138Z,4.17
2018-09-25T05:30:48.015Z,3.70
2018-09-25T05:33:21.939Z,3.80
2018-09-25T05:35:55.770Z,3.60
2018-09-25T05:38:29.690Z,3.83
2018-09-25T05:41:03.613Z,4.10
2018-09-25T05:43:37.544Z,3.80
2018-09-25T05:46:11.364Z,4.07
2018-09-25T05:48:45.389Z,4.43
2018-09-25T05:51:19.256Z,3.50
2018-09-25T05:53:53.202Z,3.20
2018-09-25T05:56:27.227Z,3.30
2018-09-25T05:59:01.036Z,3.67
2018-09-25T06:01:34.912Z,3.80
2018-09-25T06:04:08.695Z,3.80
2018-09-25T06:06:42.515Z,3.67
2018-09-25T06:09:16.479Z,3.83
2018-09-25T06:11:50.265Z,3.67
2018-09-25T06:14:24.136Z,3.40
2018-09-25T06:16:58.067Z,3.77
2018-09-25T06:19:32.080Z,3.60
2018-09-25T06:22:06.048Z,3.90
2018-09-25T06:24:39.918Z,3.53
2018-09-25T06:27:13.849Z,3.70
2018-09-25T06:29:47.689Z,3.60
2018-09-25T06:32:21.571Z,3.23
2018-09-25T06:34:55.464Z,3.60
2018-09-25T06:37:29.305Z,3.67
2018-09-25T06:40:03.224Z,3.33
2018-09-25T06:42:36.967Z,3.33
2018-09-25T06:45:10.860Z,3.90
2018-09-25T06:47:44.733Z,3.10
2018-09-25T06:50:18.645Z,2.97
2018-09-25T06:52:52.527Z,3.13
2018-09-25T06:55:26.345Z,3.20
2018-09-25T06:58:00.139Z,3.17
2018-09-25T07:00:34.000Z,3.43
2018-09-25T07:03:07.950Z,3.10
2018-09-25T07:05:41.800Z,3.33
2018-09-25T07:08:15.706Z,3.90
2018-09-25T07:10:49.596Z,4.20
2018-09-25T07:13:23.589Z,3.50
2018-09-25T07:15:57.608Z,3.43
2018-09-25T07:18:31.544Z,3.53
2018-09-25T07:21:05.483Z,3.37
2018-09-25T07:23:39.456Z,3.07
2018-09-25T07:26:13.427Z,3.47
2018-09-25T07:28:47.494Z,3.30
2018-09-25T07:31:21.349Z,3.13
2018-09-25T07:33:55.324Z,3.50
2018-09-25T07:36:29.413Z,3.30
2018-09-25T07:39:03.331Z,3.33
2018-09-25T07:41:37.228Z,3.40
2018-09-25T07:44:11.037Z,4.93
2018-09-25T07:46:45.811Z,5.90
2018-09-25T07:49:19.745Z,3.13
2018-09-25T07:51:53.591Z,3.50
2018-09-25T07:54:27.485Z,3.60
2018-09-25T07:57:01.318Z,3.50
2018-09-25T07:59:35.480Z,3.37
2018-09-25T08:02:09.303Z,3.27
2018-09-25T08:04:43.251Z,3.00
2018-09-25T08:07:17.257Z,3.13
2018-09-25T08:09:51.289Z,3.17
2018-09-25T08:12:25.128Z,4.50
2018-09-25T08:14:59.068Z,3.17
2018-09-25T08:17:32.872Z,3.03
2018-09-25T08:20:06.768Z,3.27
2018-09-25T08:22:40.707Z,2.90
2018-09-25T08:25:14.600Z,3.23
2018-09-25T08:27:48.487Z,2.97
2018-09-25T08:30:22.407Z,3.10
2018-09-25T08:32:56.257Z,3.17
2018-09-25T08:35:30.241Z,3.20
2018-09-25T08:38:04.181Z,3.23
2018-09-25T08:40:38.058Z,3.03
2018-09-25T08:43:12.022Z,3.00
2018-09-25T08:45:46.058Z,2.23
2018-09-25T08:48:19.999Z,2.63
2018-09-25T08:50:53.831Z,2.87
2018-09-25T08:53:27.860Z,2.60
2018-09-25T08:56:01.668Z,2.50
2018-09-25T08:58:35.593Z,2.27
2018-09-25T09:01:09.480Z,3.05
2018-09-25T09:03:43.304Z,2.42
2018-09-25T09:06:17.157Z,2.58
2018-09-25T09:08:51.208Z,2.40
2018-09-25T09:11:25.101Z,2.77
2018-09-25T09:13:58.923Z,3.47
2018-09-25T09:16:32.872Z,2.27
2018-09-25T09:19:06.884Z,2.17
2018-09-25T09:21:40.783Z,2.58
2018-09-25T09:24:14.723Z,2.75
2018-09-25T09:26:48.614Z,2.42
2018-09-25T09:29:22.505Z,2.50
2018-09-25T09:31:56.451Z,2.30
2018-09-25T09:34:30.364Z,2.20
2018-09-25T09:37:04.254Z,2.80
2018-09-25T09:39:38.121Z,2.20
2018-09-25T09:42:12.077Z,2.10
2018-09-25T09:44:46.137Z,2.60
2018-09-25T09:47:20.053Z,2.30
2018-09-25T09:49:54.004Z,2.00
2018-09-25T09:52:28.052Z,2.47
2018-09-25T09:55:01.872Z,2.23
2018-09-25T09:57:35.716Z,2.20
2018-09-25T10:00:11.029Z,2.17
2018-09-25T10:02:44.868Z,2.20
2018-09-25T10:05:18.743Z,2.67
2018-09-25T10:07:52.694Z,2.40
2018-09-25T10:10:26.709Z,2.73
2018-09-25T10:13:00.646Z,2.60
2018-09-25T10:15:34.630Z,2.03
2018-09-25T10:18:08.542Z,1.90
2018-09-25T10:20:42.573Z,1.98
2018-09-25T10:23:16.422Z,2.20
2018-09-25T10:25:50.352Z,3.83
2018-09-25T10:28:24.330Z,2.10
2018-09-25T10:30:58.228Z,2.10
2018-09-25T10:33:32.022Z,2.55
2018-09-25T10:36:06.068Z,2.30
2018-09-25T10:38:39.927Z,2.20
2018-09-25T10:41:13.796Z,2.00
2018-09-25T10:43:47.664Z,2.30
2018-09-25T10:46:21.531Z,2.72
2018-09-25T10:48:55.525Z,2.10
2018-09-25T10:51:29.405Z,2.25
2018-09-25T10:54:03.385Z,2.45
2018-09-25T10:59:17.362Z,2.42
2018-09-25T11:01:51.122Z,2.30
2018-09-25T11:04:24.994Z,2.40
2018-09-25T11:06:59.061Z,2.10
2018-09-25T11:09:33.048Z,2.47
2018-09-25T11:12:07.002Z,2.87
2018-09-25T11:14:40.957Z,2.52
2018-09-25T11:17:14.788Z,2.30
2018-09-25T11:19:48.703Z,2.30
2018-09-25T11:22:22.709Z,2.40
2018-09-25T11:24:56.599Z,5.27
2018-09-25T11:27:30.451Z,2.83
2018-09-25T11:30:04.476Z,2.33
2018-09-25T11:32:38.467Z,2.40
2018-09-25T11:35:12.425Z,2.00
2018-09-25T11:37:46.231Z,2.35
2018-09-25T11:40:19.960Z,2.40
2018-09-25T11:42:53.903Z,2.17
2018-09-25T11:45:27.803Z,2.12
2018-09-25T11:48:01.626Z,2.50
2018-09-25T11:50:35.577Z,2.60
2018-09-25T11:53:09.419Z,3.95
2018-09-25T11:55:43.227Z,2.40
2018-09-25T11:58:17.015Z,2.40
2018-09-25T12:00:51.109Z,2.60
2018-09-25T12:03:25.136Z,2.27
2018-09-25T12:05:58.977Z,2.10
2018-09-25T12:08:33.220Z,1.92
2018-09-25T12:11:07.041Z,2.10
2018-09-25T12:13:40.944Z,2.00
2018-09-25T12:16:14.916Z,2.42
2018-09-25T12:18:48.899Z,2.30
2018-09-25T12:21:22.966Z,2.40
2018-09-25T12:23:56.982Z,2.27
2018-09-25T12:26:30.978Z,2.40
2018-09-25T12:29:04.964Z,2.60
2018-09-25T12:31:38.829Z,2.40
2018-09-25T12:34:12.803Z,2.20
2018-09-25T12:36:46.718Z,1.93
2018-09-25T12:39:20.623Z,1.77
2018-09-25T12:41:54.425Z,2.10
2018-09-25T12:44:28.484Z,2.00
2018-09-25T12:47:02.409Z,1.80
2018-09-25T12:49:36.332Z,1.90
2018-09-25T12:52:10.187Z,1.60
2018-09-25T12:54:44.091Z,1.30
2018-09-25T12:57:17.971Z,2.23
2018-09-25T12:59:51.882Z,2.20
2018-09-25T13:02:25.896Z,1.70
2018-09-25T13:04:59.719Z,1.77
2018-09-25T13:07:33.630Z,1.80
2018-09-25T13:10:07.390Z,1.87
2018-09-25T13:12:41.325Z,2.03
2018-09-25T13:15:15.316Z,1.70
2018-09-25T13:17:49.108Z,1.83
2018-09-25T13:20:22.970Z,2.00
2018-09-25T13:22:56.879Z,2.10
2018-09-25T13:25:30.760Z,1.97
2018-09-25T13:28:04.611Z,1.70
2018-09-25T13:30:38.364Z,1.53
2018-09-25T13:33:12.340Z,2.13
2018-09-25T13:35:46.369Z,2.03
2018-09-25T13:38:20.407Z,1.93
2018-09-25T13:40:54.546Z,1.50
2018-09-25T13:43:28.468Z,2.37
2018-09-25T13:46:02.426Z,2.00
2018-09-25T13:48:36.352Z,2.50
2018-09-25T13:51:10.366Z,2.33
2018-09-25T13:53:44.342Z,2.17
2018-09-25T13:56:18.276Z,2.60
2018-09-25T13:58:52.206Z,2.37
2018-09-25T14:01:26.296Z,5.03
2018-09-25T14:04:00.296Z,2.23
2018-09-25T14:06:34.327Z,2.07
2018-09-25T14:09:08.274Z,1.83
2018-09-25T14:11:42.143Z,4.10
2018-09-25T14:14:15.889Z,2.30
2018-09-25T14:16:49.821Z,3.00
2018-09-25T14:19:23.859Z,2.00
2018-09-25T14:21:57.746Z,3.37
2018-09-25T14:24:31.604Z,3.73
2018-09-25T14:27:05.612Z,3.57
2018-09-25T14:29:39.625Z,3.23
2018-09-25T14:32:13.432Z,2.67
2018-09-25T14:34:47.235Z,2.67
2018-09-25T14:37:21.147Z,1.93
2018-09-25T14:39:55.102Z,2.80
2018-09-25T14:42:28.996Z,2.47
2018-09-25T14:45:02.844Z,2.30
2018-09-25T14:47:36.960Z,2.47
2018-09-25T14:50:10.857Z,2.50
2018-09-25T14:52:44.759Z,2.50
2018-09-25T14:55:18.741Z,3.03
2018-09-25T14:57:59.641Z,3.33
2018-09-25T15:00:33.579Z,3.90
2018-09-25T15:03:07.375Z,6.80
2018-09-25T15:05:41.358Z,5.53
2018-09-25T15:08:15.285Z,3.83
2018-09-25T15:10:49.312Z,4.63
2018-09-25T15:13:23.167Z,3.83
2018-09-25T15:15:57.112Z,5.63
2018-09-25T15:18:31.101Z,4.63
2018-09-25T15:21:05.154Z,7.70
2018-09-25T15:23:39.079Z,2.80
2018-09-25T15:26:12.944Z,5.07
2018-09-25T15:28:46.883Z,2.60
2018-09-25T15:31:20.848Z,2.50
2018-09-25T15:33:54.763Z,3.47
2018-09-25T15:36:28.671Z,2.93
2018-09-25T15:39:02.566Z,5.27
2018-09-25T15:41:36.499Z,6.17
2018-09-25T15:44:10.516Z,7.03
2018-09-25T15:46:44.452Z,5.43
2018-09-25T15:49:18.459Z,5.40
2018-09-25T15:51:52.401Z,7.97
2018-09-25T15:54:26.273Z,5.80
2018-09-25T15:57:00.169Z,3.33
2018-09-25T15:59:34.089Z,4.63
2018-09-25T16:02:07.983Z,8.40
2018-09-25T16:04:41.778Z,2.63
2018-09-25T16:07:15.728Z,4.20
2018-09-25T16:09:49.667Z,8.07
2018-09-25T16:12:23.582Z,6.23
2018-09-25T16:14:57.540Z,3.10
2018-09-25T16:17:31.443Z,3.13
2018-09-25T16:20:05.456Z,3.20
2018-09-25T16:22:39.386Z,4.10
2018-09-25T16:25:13.324Z,3.90
2018-09-25T16:27:47.239Z,2.80
2018-09-25T16:30:23.827Z,2.77
2018-09-25T16:32:57.563Z,4.57
2018-09-25T16:35:31.576Z,3.50
2018-09-25T16:38:05.624Z,2.70
2018-09-25T16:40:39.514Z,10.33
2018-09-25T16:43:13.521Z,5.10
2018-09-25T16:45:47.426Z,3.53
2018-09-25T16:48:21.256Z,2.83
2018-09-25T16:50:55.286Z,6.43
2018-09-25T16:53:29.206Z,7.80
2018-09-25T16:56:03.142Z,2.47
2018-09-25T16:58:36.947Z,2.60
2018-09-25T17:01:10.753Z,2.43
2018-09-25T17:03:44.497Z,2.80
2018-09-25T17:06:18.475Z,2.93
2018-09-25T17:08:52.284Z,4.83
2018-09-25T17:11:26.038Z,3.13
2018-09-25T17:13:59.895Z,2.93
2018-09-25T17:16:33.887Z,2.10
2018-09-25T17:19:07.834Z,2.80
2018-09-25T17:21:41.689Z,2.57
2018-09-25T17:24:15.691Z,2.30
2018-09-25T17:26:49.639Z,2.50
2018-09-25T17:29:23.545Z,2.87
2018-09-25T17:31:57.431Z,2.30
2018-09-25T17:34:31.476Z,3.60
2018-09-25T17:37:05.477Z,2.40
2018-09-25T17:39:39.850Z,2.50
2018-09-25T17:42:13.765Z,2.50
2018-09-25T17:44:47.679Z,2.80
2018-09-25T17:47:21.574Z,2.57
2018-09-25T17:49:55.456Z,2.33
2018-09-25T17:52:29.471Z,2.30
2018-09-25T17:55:03.357Z,2.30
2018-09-25T17:57:37.229Z,2.33
2018-09-25T18:00:13.387Z,2.47
2018-09-25T18:02:47.240Z,2.27
2018-09-25T18:05:21.056Z,2.57
2018-09-25T18:07:54.960Z,2.60
2018-09-25T18:10:28.806Z,2.30
2018-09-25T18:13:02.784Z,2.40
2018-09-25T18:15:36.765Z,2.33
2018-09-25T18:18:10.710Z,2.27
2018-09-25T18:20:45.040Z,2.10
2018-09-25T18:23:18.964Z,2.80
2018-09-25T18:25:52.788Z,2.03
2018-09-25T18:28:26.697Z,2.57
2018-09-25T18:31:00.552Z,2.50
2018-09-25T18:33:34.787Z,1.83
2018-09-25T18:36:08.635Z,2.03
2018-09-25T18:38:42.665Z,3.37
2018-09-25T18:41:16.574Z,1.60
2018-09-25T18:43:50.534Z,2.60
2018-09-25T18:46:24.525Z,1.87
2018-09-25T18:48:58.344Z,2.30
2018-09-25T18:51:32.184Z,1.97
2018-09-25T18:54:06.218Z,2.40
2018-09-25T18:56:39.987Z,2.00
2018-09-25T18:59:13.998Z,1.50
2018-09-25T19:01:47.926Z,1.60
2018-09-25T19:04:21.847Z,1.60
2018-09-25T19:06:55.733Z,1.60
2018-09-25T19:09:29.902Z,1.90
2018-09-25T19:12:03.832Z,1.60
2018-09-25T19:14:37.728Z,1.57
2018-09-25T19:17:11.657Z,2.60
2018-09-25T19:19:45.497Z,2.00
2018-09-25T19:22:19.296Z,1.80
2018-09-25T19:24:53.332Z,1.60
2018-09-25T19:27:28.260Z,2.00
2018-09-25T19:30:02.101Z,1.97
2018-09-25T19:32:36.043Z,2.00
2018-09-25T19:35:09.888Z,1.80
2018-09-25T19:37:43.847Z,1.60
2018-09-25T19:40:17.781Z,2.00
2018-09-25T19:42:51.656Z,1.80
2018-09-25T19:45:25.483Z,1.90
2018-09-25T19:47:59.422Z,2.03
2018-09-25T19:50:33.356Z,2.37
2018-09-25T19:53:07.329Z,1.80
2018-09-25T19:55:41.193Z,1.70
2018-09-25T19:58:15.114Z,8.40
2018-09-25T20:00:49.080Z,2.13
2018-09-25T20:03:22.918Z,1.80
2018-09-25T20:05:56.911Z,2.10
2018-09-25T20:08:30.841Z,1.80
2018-09-25T20:11:04.803Z,1.83
2018-09-25T20:13:38.716Z,2.20
2018-09-25T20:16:12.733Z,2.10
2018-09-25T20:18:46.701Z,2.40
2018-09-25T20:21:20.517Z,2.17
2018-09-25T20:23:54.526Z,1.90
2018-09-25T20:26:28.522Z,1.60
2018-09-25T20:29:02.293Z,1.60
2018-09-25T20:31:36.150Z,2.50
2018-09-25T20:34:09.964Z,2.20
2018-09-25T20:36:43.804Z,1.47
2018-09-25T20:39:17.568Z,1.60
2018-09-25T20:41:51.316Z,1.80
2018-09-25T20:44:25.240Z,1.80
2018-09-25T20:46:59.143Z,2.53
2018-09-25T20:49:32.888Z,3.80
2018-09-25T20:52:07.459Z,3.90
2018-09-25T20:54:41.220Z,3.80
2018-09-25T20:57:15.117Z,2.83
2018-09-25T20:59:49.012Z,4.30
2018-09-25T21:02:22.968Z,3.90
2018-09-25T21:04:56.758Z,4.00
2018-09-25T21:07:30.613Z,2.80
2018-09-25T21:10:04.454Z,3.27
2018-09-25T21:12:38.403Z,2.47
2018-09-25T21:15:12.521Z,3.60
2018-09-25T21:17:46.308Z,2.40
2018-09-25T21:20:20.127Z,2.40
2018-09-25T21:22:54.171Z,2.50
2018-09-25T21:25:28.017Z,3.00
2018-09-25T21:28:01.799Z,2.10
2018-09-25T21:30:35.734Z,2.83
2018-09-25T21:33:09.675Z,2.60
2018-09-25T21:35:43.600Z,2.00
2018-09-25T21:38:17.516Z,2.07
2018-09-25T21:40:51.465Z,1.93
2018-09-25T21:43:25.368Z,1.80
2018-09-25T21:45:59.239Z,2.10
2018-09-25T21:48:33.116Z,1.80
2018-09-25T21:51:07.205Z,2.00
2018-09-25T21:53:41.016Z,1.97
2018-09-25T21:56:14.968Z,2.30
2018-09-25T21:58:48.856Z,2.53
2018-09-25T22:01:22.844Z,2.40
2018-09-25T22:03:56.601Z,2.63
2018-09-25T22:06:30.448Z,2.40
2018-09-25T22:09:07.378Z,3.03
2018-09-25T22:11:41.405Z,3.03
2018-09-25T22:14:15.532Z,2.97
2018-09-25T22:16:49.396Z,2.30
2018-09-25T22:19:23.355Z,2.00
2018-09-25T22:21:57.371Z,2.77
2018-09-25T22:24:31.422Z,2.50
2018-09-25T22:27:05.405Z,2.13
2018-09-25T22:29:39.240Z,2.10
2018-09-25T22:32:13.108Z,2.00
2018-09-25T22:34:46.919Z,1.90
2018-09-25T22:37:20.840Z,2.17
2018-09-25T22:39:54.718Z,2.10
2018-09-25T22:42:28.675Z,1.97
2018-09-25T22:45:02.664Z,2.10
2018-09-25T22:47:36.550Z,1.90
2018-09-25T22:50:10.501Z,2.07
2018-09-25T22:52:44.513Z,2.23
2018-09-25T22:55:18.373Z,2.40
2018-09-25T22:57:52.181Z,2.23
2018-09-25T23:00:26.028Z,2.07
2018-09-25T23:02:59.726Z,2.03
2018-09-25T23:05:33.704Z,1.90
2018-09-25T23:08:07.529Z,2.00
2018-09-25T23:10:41.427Z,1.97
2018-09-25T23:13:15.247Z,2.27
2018-09-25T23:15:49.024Z,2.03
2018-09-25T23:18:22.903Z,2.03
2018-09-25T23:20:56.784Z,2.77
2018-09-25T23:23:30.731Z,2.80
2018-09-25T23:26:04.593Z,2.77
2018-09-25T23:28:38.565Z,2.30
2018-09-25T23:31:13.275Z,2.03
2018-09-25T23:33:47.131Z,2.23
2018-09-25T23:36:21.051Z,2.10
2018-09-25T23:38:54.904Z,2.10
2018-09-25T23:41:27.662Z,1.90
2018-09-25T23:44:01.369Z,1.70
2018-09-25T23:46:34.157Z,2.03
2018-09-25T23:49:20.546Z,2.13
2018-09-25T23:52:12.373Z,1.87
2018-09-25T23:54:47.233Z,1.90
2018-09-25T23:57:19.844Z,1.80
2018-09-25T23:59:52.462Z,1.90
